sensor_id;sensor_type;location;lat;lon;timestamp;P1;durP1;ratioP1;P2;durP2;ratioP2
8213;SDS011;4148;47.974;7.824;2023-09-30T00:01:28;10.40;;;3.97;;
8213;SDS011;4148;47.974;7.824;2023-09-30T00:03:56;8.83;;;3.97;;
8213;SDS011;4148;47.974;7.824;2023-09-30T00:06:24;9.80;;;4.07;;
8213;SDS011;4148;47.974;7.824;2023-09-30T00:08:52;6.77;;;3.63;;
8213;SDS011;4148;47.974;7.824;2023-09-30T00:11:20;8.70;;;4.17;;
8213;SDS011;4148;47.974;7.824;2023-09-30T00:13:48;14.77;;;3.77;;
8213;SDS011;4148;47.974;7.824;2023-09-30T00:16:17;8.90;;;4.70;;
8213;SDS011;4148;47.974;7.824;2023-09-30T00:18:45;8.10;;;3.87;;
8213;SDS011;4148;47.974;7.824;2023-09-30T00:21:13;9.47;;;4.57;;
8213;SDS011;4148;47.974;7.824;2023-09-30T00:23:42;8.47;;;3.37;;
8213;SDS011;4148;47.974;7.824;2023-09-30T00:26:10;9.50;;;4.00;;
8213;SDS011;4148;47.974;7.824;2023-09-30T00:28:37;9.90;;;4.30;;
8213;SDS011;4148;47.974;7.824;2023-09-30T00:31:06;7.43;;;3.93;;
8213;SDS011;4148;47.974;7.824;2023-09-30T00:33:38;8.73;;;3.80;;
8213;SDS011;4148;47.974;7.824;2023-09-30T00:36:06;7.77;;;3.30;;
8213;SDS011;4148;47.974;7.824;2023-09-30T00:38:35;7.43;;;3.50;;
8213;SDS011;4148;47.974;7.824;2023-09-30T00:41:03;11.00;;;3.40;;
8213;SDS011;4148;47.974;7.824;2023-09-30T00:43:33;8.07;;;3.53;;
8213;SDS011;4148;47.974;7.824;2023-09-30T00:46:02;10.30;;;4.00;;
8213;SDS011;4148;47.974;7.824;2023-09-30T00:48:33;8.03;;;4.40;;
8213;SDS011;4148;47.974;7.824;2023-09-30T00:51:03;8.33;;;4.00;;
8213;SDS011;4148;47.974;7.824;2023-09-30T00:53:31;6.43;;;3.37;;
8213;SDS011;4148;47.974;7.824;2023-09-30T00:55:59;12.27;;;4.37;;
8213;SDS011;4148;47.974;7.824;2023-09-30T00:58:28;6.27;;;3.10;;
8213;SDS011;4148;47.974;7.824;2023-09-30T01:00:57;7.77;;;3.60;;
8213;SDS011;4148;47.974;7.824;2023-09-30T01:03:26;7.87;;;3.23;;
8213;SDS011;4148;47.974;7.824;2023-09-30T01:05:54;6.93;;;2.93;;
8213;SDS011;4148;47.974;7.824;2023-09-30T01:08:24;8.53;;;3.70;;
8213;SDS011;4148;47.974;7.824;2023-09-30T01:10:52;8.30;;;3.60;;
8213;SDS011;4148;47.974;7.824;2023-09-30T01:13:20;9.83;;;4.20;;
8213;SDS011;4148;47.974;7.824;2023-09-30T01:15:48;7.83;;;3.73;;
8213;SDS011;4148;47.974;7.824;2023-09-30T01:18:16;11.93;;;3.90;;
8213;SDS011;4148;47.974;7.824;2023-09-30T01:20:44;8.00;;;3.63;;
8213;SDS011;4148;47.974;7.824;2023-09-30T01:23:14;6.60;;;3.50;;
8213;SDS011;4148;47.974;7.824;2023-09-30T01:25:41;8.90;;;3.70;;
8213;SDS011;4148;47.974;7.824;2023-09-30T01:28:10;7.17;;;3.23;;
8213;SDS011;4148;47.974;7.824;2023-09-30T01:30:38;9.83;;;3.53;;
8213;SDS011;4148;47.974;7.824;2023-09-30T01:33:06;6.77;;;3.40;;
8213;SDS011;4148;47.974;7.824;2023-09-30T01:35:34;9.40;;;3.93;;
8213;SDS011;4148;47.974;7.824;2023-09-30T01:38:02;8.47;;;3.47;;
8213;SDS011;4148;47.974;7.824;2023-09-30T01:40:32;7.83;;;3.80;;
8213;SDS011;4148;47.974;7.824;2023-09-30T01:43:00;6.30;;;3.03;;
8213;SDS011;4148;47.974;7.824;2023-09-30T01:45:28;7.23;;;3.50;;
8213;SDS011;4148;47.974;7.824;2023-09-30T01:47:55;6.73;;;3.93;;
8213;SDS011;4148;47.974;7.824;2023-09-30T01:50:23;7.37;;;3.47;;
8213;SDS011;4148;47.974;7.824;2023-09-30T01:52:51;7.10;;;3.67;;
8213;SDS011;4148;47.974;7.824;2023-09-30T01:55:19;8.13;;;3.43;;
8213;SDS011;4148;47.974;7.824;2023-09-30T01:57:48;7.80;;;3.83;;
8213;SDS011;4148;47.974;7.824;2023-09-30T02:00:16;9.00;;;3.60;;
8213;SDS011;4148;47.974;7.824;2023-09-30T02:02:44;9.23;;;3.50;;
8213;SDS011;4148;47.974;7.824;2023-09-30T02:05:12;7.30;;;3.60;;
8213;SDS011;4148;47.974;7.824;2023-09-30T02:07:40;7.40;;;3.20;;
8213;SDS011;4148;47.974;7.824;2023-09-30T02:10:09;7.63;;;3.67;;
8213;SDS011;4148;47.974;7.824;2023-09-30T02:12:37;8.20;;;3.93;;
8213;SDS011;4148;47.974;7.824;2023-09-30T02:15:08;7.30;;;3.67;;
8213;SDS011;4148;47.974;7.824;2023-09-30T02:17:36;10.63;;;4.87;;
8213;SDS011;4148;47.974;7.824;2023-09-30T02:20:05;7.37;;;3.90;;
8213;SDS011;4148;47.974;7.824;2023-09-30T02:22:39;7.73;;;3.63;;
8213;SDS011;4148;47.974;7.824;2023-09-30T02:25:07;7.77;;;3.60;;
8213;SDS011;4148;47.974;7.824;2023-09-30T02:27:35;8.90;;;4.07;;
8213;SDS011;4148;47.974;7.824;2023-09-30T02:30:03;10.17;;;5.47;;
8213;SDS011;4148;47.974;7.824;2023-09-30T02:32:34;8.87;;;4.17;;
8213;SDS011;4148;47.974;7.824;2023-09-30T02:35:02;7.97;;;3.50;;
8213;SDS011;4148;47.974;7.824;2023-09-30T02:37:31;5.70;;;3.53;;
8213;SDS011;4148;47.974;7.824;2023-09-30T02:40:02;7.70;;;3.80;;
8213;SDS011;4148;47.974;7.824;2023-09-30T02:42:33;6.80;;;3.40;;
8213;SDS011;4148;47.974;7.824;2023-09-30T02:45:02;6.63;;;3.37;;
8213;SDS011;4148;47.974;7.824;2023-09-30T02:47:30;7.40;;;3.60;;
8213;SDS011;4148;47.974;7.824;2023-09-30T02:50:00;7.60;;;3.60;;
8213;SDS011;4148;47.974;7.824;2023-09-30T02:52:28;9.90;;;4.20;;
8213;SDS011;4148;47.974;7.824;2023-09-30T02:54:56;8.37;;;4.13;;
8213;SDS011;4148;47.974;7.824;2023-09-30T02:57:25;7.80;;;3.13;;
8213;SDS011;4148;47.974;7.824;2023-09-30T02:59:54;7.87;;;3.70;;
8213;SDS011;4148;47.974;7.824;2023-09-30T03:02:23;7.90;;;3.40;;
8213;SDS011;4148;47.974;7.824;2023-09-30T03:04:51;8.77;;;4.13;;
8213;SDS011;4148;47.974;7.824;2023-09-30T03:07:20;7.27;;;3.10;;
8213;SDS011;4148;47.974;7.824;2023-09-30T03:09:49;8.33;;;3.70;;
8213;SDS011;4148;47.974;7.824;2023-09-30T03:12:19;6.57;;;3.43;;
8213;SDS011;4148;47.974;7.824;2023-09-30T03:14:47;6.33;;;3.07;;
8213;SDS011;4148;47.974;7.824;2023-09-30T03:17:15;6.70;;;3.63;;
8213;SDS011;4148;47.974;7.824;2023-09-30T03:19:43;8.60;;;3.53;;
8213;SDS011;4148;47.974;7.824;2023-09-30T03:22:11;10.13;;;3.73;;
8213;SDS011;4148;47.974;7.824;2023-09-30T03:24:40;7.23;;;3.40;;
8213;SDS011;4148;47.974;7.824;2023-09-30T03:27:08;7.93;;;4.20;;
8213;SDS011;4148;47.974;7.824;2023-09-30T03:29:37;8.33;;;3.37;;
8213;SDS011;4148;47.974;7.824;2023-09-30T03:32:05;6.77;;;3.63;;
8213;SDS011;4148;47.974;7.824;2023-09-30T03:34:33;6.63;;;3.07;;
8213;SDS011;4148;47.974;7.824;2023-09-30T03:37:03;9.07;;;3.67;;
8213;SDS011;4148;47.974;7.824;2023-09-30T03:39:33;6.70;;;3.53;;
8213;SDS011;4148;47.974;7.824;2023-09-30T03:42:02;8.30;;;3.40;;
8213;SDS011;4148;47.974;7.824;2023-09-30T03:44:31;6.90;;;3.13;;
8213;SDS011;4148;47.974;7.824;2023-09-30T03:46:58;10.10;;;3.80;;
8213;SDS011;4148;47.974;7.824;2023-09-30T03:49:28;7.60;;;3.13;;
8213;SDS011;4148;47.974;7.824;2023-09-30T03:51:56;7.77;;;3.80;;
8213;SDS011;4148;47.974;7.824;2023-09-30T03:54:23;8.87;;;3.43;;
8213;SDS011;4148;47.974;7.824;2023-09-30T03:56:53;8.37;;;3.57;;
8213;SDS011;4148;47.974;7.824;2023-09-30T03:59:22;6.90;;;3.33;;
8213;SDS011;4148;47.974;7.824;2023-09-30T04:01:50;5.67;;;3.53;;
8213;SDS011;4148;47.974;7.824;2023-09-30T04:04:19;8.17;;;3.70;;
8213;SDS011;4148;47.974;7.824;2023-09-30T04:06:48;6.07;;;3.60;;
8213;SDS011;4148;47.974;7.824;2023-09-30T04:09:17;6.83;;;3.17;;
8213;SDS011;4148;47.974;7.824;2023-09-30T04:11:45;6.87;;;3.10;;
8213;SDS011;4148;47.974;7.824;2023-09-30T04:14:13;8.60;;;3.60;;
8213;SDS011;4148;47.974;7.824;2023-09-30T04:16:44;6.80;;;3.80;;
8213;SDS011;4148;47.974;7.824;2023-09-30T04:19:12;7.40;;;3.40;;
8213;SDS011;4148;47.974;7.824;2023-09-30T04:21:40;6.40;;;3.30;;
8213;SDS011;4148;47.974;7.824;2023-09-30T04:24:09;6.93;;;3.27;;
8213;SDS011;4148;47.974;7.824;2023-09-30T04:26:37;6.70;;;2.80;;
8213;SDS011;4148;47.974;7.824;2023-09-30T04:29:06;7.03;;;3.40;;
8213;SDS011;4148;47.974;7.824;2023-09-30T04:31:37;5.90;;;3.43;;
8213;SDS011;4148;47.974;7.824;2023-09-30T04:34:06;7.47;;;3.30;;
8213;SDS011;4148;47.974;7.824;2023-09-30T04:36:34;11.37;;;3.97;;
8213;SDS011;4148;47.974;7.824;2023-09-30T04:39:02;7.80;;;3.47;;
8213;SDS011;4148;47.974;7.824;2023-09-30T04:41:31;7.67;;;3.50;;
8213;SDS011;4148;47.974;7.824;2023-09-30T04:43:59;7.40;;;3.50;;
8213;SDS011;4148;47.974;7.824;2023-09-30T04:46:27;7.70;;;3.13;;
8213;SDS011;4148;47.974;7.824;2023-09-30T04:48:56;7.03;;;3.30;;
8213;SDS011;4148;47.974;7.824;2023-09-30T04:51:25;10.53;;;3.93;;
8213;SDS011;4148;47.974;7.824;2023-09-30T04:53:54;8.57;;;3.37;;
8213;SDS011;4148;47.974;7.824;2023-09-30T04:56:22;7.07;;;3.23;;
8213;SDS011;4148;47.974;7.824;2023-09-30T04:58:50;9.23;;;3.47;;
8213;SDS011;4148;47.974;7.824;2023-09-30T05:01:18;8.90;;;3.97;;
8213;SDS011;4148;47.974;7.824;2023-09-30T05:03:46;6.90;;;3.57;;
8213;SDS011;4148;47.974;7.824;2023-09-30T05:06:16;6.90;;;3.10;;
8213;SDS011;4148;47.974;7.824;2023-09-30T05:08:45;7.00;;;3.43;;
8213;SDS011;4148;47.974;7.824;2023-09-30T05:11:13;8.00;;;3.90;;
8213;SDS011;4148;47.974;7.824;2023-09-30T05:13:42;13.10;;;3.10;;
8213;SDS011;4148;47.974;7.824;2023-09-30T05:16:10;8.83;;;3.63;;
8213;SDS011;4148;47.974;7.824;2023-09-30T05:18:39;7.20;;;3.77;;
8213;SDS011;4148;47.974;7.824;2023-09-30T05:21:09;7.87;;;3.90;;
8213;SDS011;4148;47.974;7.824;2023-09-30T05:23:37;9.10;;;3.17;;
8213;SDS011;4148;47.974;7.824;2023-09-30T05:26:06;6.70;;;3.37;;
8213;SDS011;4148;47.974;7.824;2023-09-30T05:28:34;6.60;;;3.50;;
8213;SDS011;4148;47.974;7.824;2023-09-30T05:31:02;7.30;;;3.83;;
8213;SDS011;4148;47.974;7.824;2023-09-30T05:33:30;6.40;;;4.03;;
8213;SDS011;4148;47.974;7.824;2023-09-30T05:35:58;8.90;;;3.60;;
8213;SDS011;4148;47.974;7.824;2023-09-30T05:38:29;6.23;;;3.80;;
8213;SDS011;4148;47.974;7.824;2023-09-30T05:40:57;12.03;;;4.00;;
8213;SDS011;4148;47.974;7.824;2023-09-30T05:43:27;5.73;;;3.53;;
8213;SDS011;4148;47.974;7.824;2023-09-30T05:45:56;7.60;;;3.40;;
8213;SDS011;4148;47.974;7.824;2023-09-30T05:48:27;8.47;;;4.10;;
8213;SDS011;4148;47.974;7.824;2023-09-30T05:50:55;9.47;;;4.30;;
8213;SDS011;4148;47.974;7.824;2023-09-30T05:53:23;7.87;;;3.30;;
8213;SDS011;4148;47.974;7.824;2023-09-30T05:55:51;7.17;;;3.20;;
8213;SDS011;4148;47.974;7.824;2023-09-30T05:58:19;6.13;;;3.37;;
8213;SDS011;4148;47.974;7.824;2023-09-30T06:00:48;7.80;;;3.50;;
8213;SDS011;4148;47.974;7.824;2023-09-30T06:03:17;7.83;;;3.87;;
8213;SDS011;4148;47.974;7.824;2023-09-30T06:05:45;7.83;;;3.83;;
8213;SDS011;4148;47.974;7.824;2023-09-30T06:08:13;6.00;;;3.17;;
8213;SDS011;4148;47.974;7.824;2023-09-30T06:10:42;10.10;;;4.40;;
8213;SDS011;4148;47.974;7.824;2023-09-30T06:13:10;7.33;;;3.80;;
8213;SDS011;4148;47.974;7.824;2023-09-30T06:15:39;7.63;;;3.53;;
8213;SDS011;4148;47.974;7.824;2023-09-30T06:18:09;7.70;;;3.30;;
8213;SDS011;4148;47.974;7.824;2023-09-30T06:20:40;8.50;;;3.67;;
8213;SDS011;4148;47.974;7.824;2023-09-30T06:23:08;12.80;;;5.27;;
8213;SDS011;4148;47.974;7.824;2023-09-30T06:25:37;6.43;;;3.80;;
8213;SDS011;4148;47.974;7.824;2023-09-30T06:28:06;9.93;;;4.53;;
8213;SDS011;4148;47.974;7.824;2023-09-30T06:30:34;6.67;;;3.93;;
8213;SDS011;4148;47.974;7.824;2023-09-30T06:33:03;5.80;;;3.23;;
8213;SDS011;4148;47.974;7.824;2023-09-30T06:35:34;7.87;;;3.87;;
8213;SDS011;4148;47.974;7.824;2023-09-30T06:38:05;6.70;;;3.70;;
8213;SDS011;4148;47.974;7.824;2023-09-30T06:40:34;7.17;;;3.77;;
8213;SDS011;4148;47.974;7.824;2023-09-30T06:43:06;6.20;;;3.73;;
8213;SDS011;4148;47.974;7.824;2023-09-30T06:45:34;8.80;;;4.10;;
8213;SDS011;4148;47.974;7.824;2023-09-30T06:48:07;8.30;;;3.70;;
8213;SDS011;4148;47.974;7.824;2023-09-30T06:50:42;9.20;;;4.00;;
8213;SDS011;4148;47.974;7.824;2023-09-30T06:53:11;7.97;;;3.93;;
8213;SDS011;4148;47.974;7.824;2023-09-30T06:55:39;6.90;;;3.57;;
8213;SDS011;4148;47.974;7.824;2023-09-30T06:58:07;6.73;;;3.73;;
8213;SDS011;4148;47.974;7.824;2023-09-30T07:00:36;8.80;;;4.17;;
8213;SDS011;4148;47.974;7.824;2023-09-30T07:03:05;7.13;;;4.10;;
8213;SDS011;4148;47.974;7.824;2023-09-30T07:05:33;8.73;;;3.80;;
8213;SDS011;4148;47.974;7.824;2023-09-30T07:08:04;11.10;;;3.90;;
8213;SDS011;4148;47.974;7.824;2023-09-30T07:10:33;8.67;;;3.37;;
8213;SDS011;4148;47.974;7.824;2023-09-30T07:13:01;10.17;;;3.90;;
8213;SDS011;4148;47.974;7.824;2023-09-30T07:15:30;8.13;;;3.83;;
8213;SDS011;4148;47.974;7.824;2023-09-30T07:17:58;7.23;;;4.13;;
8213;SDS011;4148;47.974;7.824;2023-09-30T07:20:26;11.43;;;4.40;;
8213;SDS011;4148;47.974;7.824;2023-09-30T07:22:55;12.13;;;4.47;;
8213;SDS011;4148;47.974;7.824;2023-09-30T07:25:44;7.43;;;4.20;;
8213;SDS011;4148;47.974;7.824;2023-09-30T07:28:12;9.10;;;4.77;;
8213;SDS011;4148;47.974;7.824;2023-09-30T07:30:40;10.93;;;4.97;;
8213;SDS011;4148;47.974;7.824;2023-09-30T07:33:09;9.80;;;4.93;;
8213;SDS011;4148;47.974;7.824;2023-09-30T07:35:37;7.50;;;3.87;;
8213;SDS011;4148;47.974;7.824;2023-09-30T07:38:06;8.30;;;3.80;;
8213;SDS011;4148;47.974;7.824;2023-09-30T07:40:33;11.17;;;4.70;;
8213;SDS011;4148;47.974;7.824;2023-09-30T07:43:03;8.50;;;4.53;;
8213;SDS011;4148;47.974;7.824;2023-09-30T07:45:31;10.93;;;4.80;;
8213;SDS011;4148;47.974;7.824;2023-09-30T07:47:59;7.60;;;4.17;;
8213;SDS011;4148;47.974;7.824;2023-09-30T07:50:29;9.13;;;4.20;;
8213;SDS011;4148;47.974;7.824;2023-09-30T07:52:57;8.13;;;4.20;;
8213;SDS011;4148;47.974;7.824;2023-09-30T07:55:26;12.93;;;4.63;;
8213;SDS011;4148;47.974;7.824;2023-09-30T07:57:54;9.80;;;4.60;;
8213;SDS011;4148;47.974;7.824;2023-09-30T08:00:26;8.70;;;4.03;;
8213;SDS011;4148;47.974;7.824;2023-09-30T08:02:54;9.60;;;4.63;;
8213;SDS011;4148;47.974;7.824;2023-09-30T08:05:23;6.80;;;4.27;;
8213;SDS011;4148;47.974;7.824;2023-09-30T08:07:50;10.77;;;4.23;;
8213;SDS011;4148;47.974;7.824;2023-09-30T08:10:18;7.83;;;4.67;;
8213;SDS011;4148;47.974;7.824;2023-09-30T08:12:46;11.60;;;4.90;;
8213;SDS011;4148;47.974;7.824;2023-09-30T08:15:15;8.70;;;5.00;;
8213;SDS011;4148;47.974;7.824;2023-09-30T08:17:45;8.27;;;4.40;;
8213;SDS011;4148;47.974;7.824;2023-09-30T08:20:13;8.73;;;4.57;;
8213;SDS011;4148;47.974;7.824;2023-09-30T08:22:41;8.33;;;4.17;;
8213;SDS011;4148;47.974;7.824;2023-09-30T08:25:09;8.73;;;4.50;;
8213;SDS011;4148;47.974;7.824;2023-09-30T08:27:38;8.97;;;4.60;;
8213;SDS011;4148;47.974;7.824;2023-09-30T08:30:06;11.63;;;4.90;;
8213;SDS011;4148;47.974;7.824;2023-09-30T08:32:37;8.30;;;4.27;;
8213;SDS011;4148;47.974;7.824;2023-09-30T08:35:07;7.23;;;4.37;;
8213;SDS011;4148;47.974;7.824;2023-09-30T08:37:36;8.53;;;5.13;;
8213;SDS011;4148;47.974;7.824;2023-09-30T08:40:05;11.30;;;5.10;;
8213;SDS011;4148;47.974;7.824;2023-09-30T08:42:36;11.33;;;4.33;;
8213;SDS011;4148;47.974;7.824;2023-09-30T08:45:07;10.37;;;5.20;;
8213;SDS011;4148;47.974;7.824;2023-09-30T08:47:37;9.30;;;4.77;;
8213;SDS011;4148;47.974;7.824;2023-09-30T08:50:09;9.33;;;4.13;;
8213;SDS011;4148;47.974;7.824;2023-09-30T08:52:37;9.90;;;4.17;;
8213;SDS011;4148;47.974;7.824;2023-09-30T08:55:07;11.67;;;4.97;;
8213;SDS011;4148;47.974;7.824;2023-09-30T08:57:36;11.00;;;4.73;;
8213;SDS011;4148;47.974;7.824;2023-09-30T09:00:07;7.67;;;4.40;;
8213;SDS011;4148;47.974;7.824;2023-09-30T09:02:37;10.50;;;4.03;;
8213;SDS011;4148;47.974;7.824;2023-09-30T09:05:06;7.57;;;3.60;;
8213;SDS011;4148;47.974;7.824;2023-09-30T09:07:36;5.63;;;4.00;;
8213;SDS011;4148;47.974;7.824;2023-09-30T09:10:04;10.30;;;4.20;;
8213;SDS011;4148;47.974;7.824;2023-09-30T09:12:34;6.60;;;3.63;;
8213;SDS011;4148;47.974;7.824;2023-09-30T09:15:04;8.10;;;3.80;;
8213;SDS011;4148;47.974;7.824;2023-09-30T09:17:40;9.10;;;3.70;;
8213;SDS011;4148;47.974;7.824;2023-09-30T09:20:10;7.30;;;3.80;;
8213;SDS011;4148;47.974;7.824;2023-09-30T09:22:42;6.70;;;3.40;;
8213;SDS011;4148;47.974;7.824;2023-09-30T09:25:11;10.20;;;4.10;;
8213;SDS011;4148;47.974;7.824;2023-09-30T09:27:39;6.77;;;4.13;;
8213;SDS011;4148;47.974;7.824;2023-09-30T09:30:16;10.93;;;4.90;;
8213;SDS011;4148;47.974;7.824;2023-09-30T09:32:52;11.60;;;4.40;;
8213;SDS011;4148;47.974;7.824;2023-09-30T09:35:21;9.73;;;4.13;;
8213;SDS011;4148;47.974;7.824;2023-09-30T09:37:56;7.80;;;3.90;;
8213;SDS011;4148;47.974;7.824;2023-09-30T09:40:26;8.33;;;4.53;;
8213;SDS011;4148;47.974;7.824;2023-09-30T09:42:54;12.30;;;4.23;;
8213;SDS011;4148;47.974;7.824;2023-09-30T09:45:24;6.30;;;3.73;;
8213;SDS011;4148;47.974;7.824;2023-09-30T09:47:53;7.50;;;3.70;;
8213;SDS011;4148;47.974;7.824;2023-09-30T09:50:22;11.07;;;4.60;;
8213;SDS011;4148;47.974;7.824;2023-09-30T09:52:51;7.23;;;4.20;;
8213;SDS011;4148;47.974;7.824;2023-09-30T09:55:23;6.70;;;3.70;;
8213;SDS011;4148;47.974;7.824;2023-09-30T09:57:51;5.03;;;3.30;;
8213;SDS011;4148;47.974;7.824;2023-09-30T10:00:20;9.10;;;4.30;;
8213;SDS011;4148;47.974;7.824;2023-09-30T10:02:50;8.90;;;4.50;;
8213;SDS011;4148;47.974;7.824;2023-09-30T10:05:19;6.93;;;3.87;;
8213;SDS011;4148;47.974;7.824;2023-09-30T10:07:50;8.17;;;4.20;;
8213;SDS011;4148;47.974;7.824;2023-09-30T10:10:21;6.03;;;3.73;;
8213;SDS011;4148;47.974;7.824;2023-09-30T10:12:51;5.83;;;3.30;;
8213;SDS011;4148;47.974;7.824;2023-09-30T10:15:35;6.47;;;3.10;;
8213;SDS011;4148;47.974;7.824;2023-09-30T10:18:10;5.63;;;3.43;;
8213;SDS011;4148;47.974;7.824;2023-09-30T10:20:42;6.83;;;3.43;;
8213;SDS011;4148;47.974;7.824;2023-09-30T10:23:17;4.90;;;3.20;;
8213;SDS011;4148;47.974;7.824;2023-09-30T10:25:48;4.90;;;3.10;;
8213;SDS011;4148;47.974;7.824;2023-09-30T10:28:33;7.00;;;3.47;;
8213;SDS011;4148;47.974;7.824;2023-09-30T10:31:12;10.70;;;4.20;;
8213;SDS011;4148;47.974;7.824;2023-09-30T10:36:49;7.30;;;4.20;;
8213;SDS011;4148;47.974;7.824;2023-09-30T10:42:48;6.10;;;3.77;;
8213;SDS011;4148;47.974;7.824;2023-09-30T10:48:31;9.70;;;3.93;;
8213;SDS011;4148;47.974;7.824;2023-09-30T10:51:12;7.90;;;3.60;;
8213;SDS011;4148;47.974;7.824;2023-09-30T10:53:43;7.17;;;3.80;;
8213;SDS011;4148;47.974;7.824;2023-09-30T10:56:12;6.63;;;3.40;;
8213;SDS011;4148;47.974;7.824;2023-09-30T10:58:43;8.93;;;3.70;;
8213;SDS011;4148;47.974;7.824;2023-09-30T11:01:12;4.70;;;3.40;;
8213;SDS011;4148;47.974;7.824;2023-09-30T11:03:42;8.57;;;4.13;;
8213;SDS011;4148;47.974;7.824;2023-09-30T11:06:11;7.90;;;4.10;;
8213;SDS011;4148;47.974;7.824;2023-09-30T11:08:50;9.30;;;5.03;;
8213;SDS011;4148;47.974;7.824;2023-09-30T11:11:19;7.37;;;4.00;;
8213;SDS011;4148;47.974;7.824;2023-09-30T11:14:03;7.67;;;3.87;;
8213;SDS011;4148;47.974;7.824;2023-09-30T11:16:43;8.70;;;4.50;;
8213;SDS011;4148;47.974;7.824;2023-09-30T11:19:12;6.53;;;4.17;;
8213;SDS011;4148;47.974;7.824;2023-09-30T11:21:41;9.73;;;4.47;;
8213;SDS011;4148;47.974;7.824;2023-09-30T11:24:11;7.03;;;4.40;;
8213;SDS011;4148;47.974;7.824;2023-09-30T11:26:40;10.77;;;4.80;;
8213;SDS011;4148;47.974;7.824;2023-09-30T11:29:11;6.70;;;4.10;;
8213;SDS011;4148;47.974;7.824;2023-09-30T11:31:43;8.63;;;4.87;;
8213;SDS011;4148;47.974;7.824;2023-09-30T11:34:16;7.90;;;4.73;;
8213;SDS011;4148;47.974;7.824;2023-09-30T11:36:47;7.07;;;5.00;;
8213;SDS011;4148;47.974;7.824;2023-09-30T11:39:21;10.77;;;6.10;;
8213;SDS011;4148;47.974;7.824;2023-09-30T11:41:50;11.63;;;6.40;;
8213;SDS011;4148;47.974;7.824;2023-09-30T11:44:19;12.17;;;6.73;;
8213;SDS011;4148;47.974;7.824;2023-09-30T11:46:49;11.97;;;7.30;;
8213;SDS011;4148;47.974;7.824;2023-09-30T11:49:25;13.63;;;6.63;;
8213;SDS011;4148;47.974;7.824;2023-09-30T11:51:54;12.40;;;6.27;;
8213;SDS011;4148;47.974;7.824;2023-09-30T11:54:25;14.53;;;6.90;;
8213;SDS011;4148;47.974;7.824;2023-09-30T11:56:56;12.93;;;6.50;;
8213;SDS011;4148;47.974;7.824;2023-09-30T11:59:26;14.03;;;6.77;;
8213;SDS011;4148;47.974;7.824;2023-09-30T12:01:54;10.57;;;6.30;;
8213;SDS011;4148;47.974;7.824;2023-09-30T12:04:39;11.50;;;6.40;;
8213;SDS011;4148;47.974;7.824;2023-09-30T12:07:07;11.37;;;6.37;;
8213;SDS011;4148;47.974;7.824;2023-09-30T12:09:35;12.60;;;6.57;;
8213;SDS011;4148;47.974;7.824;2023-09-30T12:12:06;10.93;;;7.00;;
8213;SDS011;4148;47.974;7.824;2023-09-30T12:14:38;10.23;;;5.90;;
8213;SDS011;4148;47.974;7.824;2023-09-30T12:17:06;10.97;;;6.40;;
8213;SDS011;4148;47.974;7.824;2023-09-30T12:19:39;10.67;;;5.60;;
8213;SDS011;4148;47.974;7.824;2023-09-30T12:22:08;11.07;;;6.00;;
8213;SDS011;4148;47.974;7.824;2023-09-30T12:24:37;13.83;;;6.53;;
8213;SDS011;4148;47.974;7.824;2023-09-30T12:27:06;10.93;;;5.80;;
8213;SDS011;4148;47.974;7.824;2023-09-30T12:29:34;11.73;;;5.60;;
8213;SDS011;4148;47.974;7.824;2023-09-30T12:32:06;11.07;;;5.77;;
8213;SDS011;4148;47.974;7.824;2023-09-30T12:34:34;9.93;;;5.90;;
8213;SDS011;4148;47.974;7.824;2023-09-30T12:37:02;9.60;;;5.50;;
8213;SDS011;4148;47.974;7.824;2023-09-30T12:39:30;10.60;;;5.50;;
8213;SDS011;4148;47.974;7.824;2023-09-30T12:42:00;9.97;;;5.70;;
8213;SDS011;4148;47.974;7.824;2023-09-30T12:44:27;11.83;;;6.23;;
8213;SDS011;4148;47.974;7.824;2023-09-30T12:46:55;11.07;;;6.07;;
8213;SDS011;4148;47.974;7.824;2023-09-30T12:49:25;10.47;;;5.87;;
8213;SDS011;4148;47.974;7.824;2023-09-30T12:51:53;11.97;;;5.97;;
8213;SDS011;4148;47.974;7.824;2023-09-30T12:54:22;11.60;;;6.60;;
8213;SDS011;4148;47.974;7.824;2023-09-30T12:56:50;13.50;;;6.60;;
8213;SDS011;4148;47.974;7.824;2023-09-30T12:59:18;9.87;;;6.10;;
8213;SDS011;4148;47.974;7.824;2023-09-30T13:01:50;15.17;;;6.80;;
8213;SDS011;4148;47.974;7.824;2023-09-30T13:04:18;10.23;;;6.60;;
8213;SDS011;4148;47.974;7.824;2023-09-30T13:06:47;12.10;;;6.50;;
8213;SDS011;4148;47.974;7.824;2023-09-30T13:09:16;9.67;;;5.30;;
8213;SDS011;4148;47.974;7.824;2023-09-30T13:11:46;11.67;;;6.03;;
8213;SDS011;4148;47.974;7.824;2023-09-30T13:14:14;10.90;;;6.83;;
8213;SDS011;4148;47.974;7.824;2023-09-30T13:16:41;16.20;;;7.10;;
8213;SDS011;4148;47.974;7.824;2023-09-30T13:19:11;11.93;;;6.77;;
8213;SDS011;4148;47.974;7.824;2023-09-30T13:21:42;11.63;;;6.60;;
8213;SDS011;4148;47.974;7.824;2023-09-30T13:24:11;13.80;;;6.60;;
8213;SDS011;4148;47.974;7.824;2023-09-30T13:26:40;13.57;;;7.60;;
8213;SDS011;4148;47.974;7.824;2023-09-30T13:29:08;13.30;;;6.43;;
8213;SDS011;4148;47.974;7.824;2023-09-30T13:31:38;11.47;;;6.30;;
8213;SDS011;4148;47.974;7.824;2023-09-30T13:34:06;13.30;;;7.17;;
8213;SDS011;4148;47.974;7.824;2023-09-30T13:36:34;12.63;;;6.37;;
8213;SDS011;4148;47.974;7.824;2023-09-30T13:39:02;13.27;;;6.27;;
8213;SDS011;4148;47.974;7.824;2023-09-30T13:41:34;12.40;;;7.20;;
8213;SDS011;4148;47.974;7.824;2023-09-30T13:44:02;13.70;;;7.00;;
8213;SDS011;4148;47.974;7.824;2023-09-30T13:46:31;14.53;;;6.90;;
8213;SDS011;4148;47.974;7.824;2023-09-30T13:48:59;14.03;;;7.03;;
8213;SDS011;4148;47.974;7.824;2023-09-30T13:51:27;13.80;;;7.00;;
8213;SDS011;4148;47.974;7.824;2023-09-30T13:53:55;10.63;;;6.17;;
8213;SDS011;4148;47.974;7.824;2023-09-30T13:56:23;12.00;;;6.40;;
8213;SDS011;4148;47.974;7.824;2023-09-30T13:58:52;14.00;;;7.10;;
8213;SDS011;4148;47.974;7.824;2023-09-30T14:01:20;11.90;;;6.57;;
8213;SDS011;4148;47.974;7.824;2023-09-30T14:03:48;11.93;;;7.27;;
8213;SDS011;4148;47.974;7.824;2023-09-30T14:06:21;14.97;;;7.60;;
8213;SDS011;4148;47.974;7.824;2023-09-30T14:08:49;12.53;;;6.50;;
8213;SDS011;4148;47.974;7.824;2023-09-30T14:11:19;12.43;;;7.20;;
8213;SDS011;4148;47.974;7.824;2023-09-30T14:13:46;11.30;;;6.90;;
8213;SDS011;4148;47.974;7.824;2023-09-30T14:16:16;13.30;;;7.63;;
8213;SDS011;4148;47.974;7.824;2023-09-30T14:18:45;11.90;;;7.03;;
8213;SDS011;4148;47.974;7.824;2023-09-30T14:21:14;14.00;;;6.77;;
8213;SDS011;4148;47.974;7.824;2023-09-30T14:23:41;14.60;;;7.00;;
8213;SDS011;4148;47.974;7.824;2023-09-30T14:26:09;13.30;;;7.57;;
8213;SDS011;4148;47.974;7.824;2023-09-30T14:28:37;13.03;;;7.40;;
8213;SDS011;4148;47.974;7.824;2023-09-30T14:31:05;14.47;;;6.97;;
8213;SDS011;4148;47.974;7.824;2023-09-30T14:33:35;10.47;;;5.90;;
8213;SDS011;4148;47.974;7.824;2023-09-30T14:36:03;13.00;;;6.70;;
8213;SDS011;4148;47.974;7.824;2023-09-30T14:38:32;12.27;;;6.60;;
8213;SDS011;4148;47.974;7.824;2023-09-30T14:41:00;11.53;;;6.00;;
8213;SDS011;4148;47.974;7.824;2023-09-30T14:43:28;11.53;;;6.87;;
8213;SDS011;4148;47.974;7.824;2023-09-30T14:45:56;14.27;;;7.30;;
8213;SDS011;4148;47.974;7.824;2023-09-30T14:48:24;12.10;;;7.03;;
8213;SDS011;4148;47.974;7.824;2023-09-30T14:50:53;13.70;;;6.80;;
8213;SDS011;4148;47.974;7.824;2023-09-30T14:53:23;11.37;;;6.77;;
8213;SDS011;4148;47.974;7.824;2023-09-30T14:55:51;15.20;;;6.67;;
8213;SDS011;4148;47.974;7.824;2023-09-30T14:58:19;15.90;;;7.43;;
8213;SDS011;4148;47.974;7.824;2023-09-30T15:00:47;11.70;;;7.00;;
8213;SDS011;4148;47.974;7.824;2023-09-30T15:03:15;12.40;;;6.83;;
8213;SDS011;4148;47.974;7.824;2023-09-30T15:05:43;14.47;;;7.30;;
8213;SDS011;4148;47.974;7.824;2023-09-30T15:08:12;15.57;;;7.80;;
8213;SDS011;4148;47.974;7.824;2023-09-30T15:10:40;13.13;;;7.30;;
8213;SDS011;4148;47.974;7.824;2023-09-30T15:13:07;12.40;;;6.90;;
8213;SDS011;4148;47.974;7.824;2023-09-30T15:15:36;14.60;;;7.83;;
8213;SDS011;4148;47.974;7.824;2023-09-30T15:18:04;14.23;;;7.60;;
8213;SDS011;4148;47.974;7.824;2023-09-30T15:20:37;13.83;;;7.10;;
8213;SDS011;4148;47.974;7.824;2023-09-30T15:23:06;12.03;;;7.17;;
8213;SDS011;4148;47.974;7.824;2023-09-30T15:25:38;11.17;;;6.80;;
8213;SDS011;4148;47.974;7.824;2023-09-30T15:28:07;12.40;;;7.07;;
8213;SDS011;4148;47.974;7.824;2023-09-30T15:30:35;14.00;;;7.07;;
8213;SDS011;4148;47.974;7.824;2023-09-30T15:33:04;14.30;;;7.50;;